sensor_id;sensor_type;location;lat;lon;timestamp;pressure;altitude;pressure_sealevel;temperature;humidity
73103;BME280;61294;65.988;29.172;2023-04-03T00:00:06;100391.22;;;-13.59;67.59
73103;BME280;61294;65.988;29.172;2023-04-03T00:02:32;100396.13;;;-13.61;67.71
73103;BME280;61294;65.988;29.172;2023-04-03T00:04:58;100394.50;;;-13.67;67.93
73103;BME280;61294;65.988;29.172;2023-04-03T00:07:24;100398.28;;;-13.78;68.63
73103;BME280;61294;65.988;29.172;2023-04-03T00:09:49;100402.44;;;-13.79;68.26
73103;BME280;61294;65.988;29.172;2023-04-03T00:12:15;100361.00;;;-13.94;68.09
73103;BME280;61294;65.988;29.172;2023-04-03T00:14:41;100388.84;;;-13.86;68.35
73103;BME280;61294;65.988;29.172;2023-04-03T00:17:07;100382.34;;;-13.92;69.11
73103;BME280;61294;65.988;29.172;2023-04-03T00:19:33;100396.09;;;-13.82;69.49
73103;BME280;61294;65.988;29.172;2023-04-03T00:21:59;100399.16;;;-13.92;69.55
73103;BME280;61294;65.988;29.172;2023-04-03T00:24:25;100388.13;;;-13.93;69.95
73103;BME280;61294;65.988;29.172;2023-04-03T00:26:50;100394.31;;;-13.83;69.71
73103;BME280;61294;65.988;29.172;2023-04-03T00:29:16;100390.66;;;-13.85;69.21
73103;BME280;61294;65.988;29.172;2023-04-03T00:31:42;100390.13;;;-13.97;69.19
73103;BME280;61294;65.988;29.172;2023-04-03T00:34:08;100385.25;;;-14.03;69.41
73103;BME280;61294;65.988;29.172;2023-04-03T00:36:34;100400.06;;;-14.06;70.24
73103;BME280;61294;65.988;29.172;2023-04-03T00:39:00;100397.16;;;-14.16;70.24
73103;BME280;61294;65.988;29.172;2023-04-03T00:41:26;100399.47;;;-14.25;70.59
73103;BME280;61294;65.988;29.172;2023-04-03T00:43:52;100404.00;;;-14.30;70.99
73103;BME280;61294;65.988;29.172;2023-04-03T00:46:18;100382.81;;;-14.45;70.84
73103;BME280;61294;65.988;29.172;2023-04-03T00:48:46;100401.63;;;-14.43;70.50
73103;BME280;61294;65.988;29.172;2023-04-03T00:51:32;100379.50;;;-14.72;70.33
73103;BME280;61294;65.988;29.172;2023-04-03T00:54:01;100407.56;;;-14.49;70.76
73103;BME280;61294;65.988;29.172;2023-04-03T00:56:29;100391.09;;;-14.53;70.77
73103;BME280;61294;65.988;29.172;2023-04-03T00:59:12;100411.53;;;-14.51;70.37
73103;BME280;61294;65.988;29.172;2023-04-03T01:01:39;100415.47;;;-14.68;70.25
73103;BME280;61294;65.988;29.172;2023-04-03T01:04:05;100422.00;;;-14.63;70.70
73103;BME280;61294;65.988;29.172;2023-04-03T01:06:36;100420.53;;;-14.68;70.39
73103;BME280;61294;65.988;29.172;2023-04-03T01:09:03;100420.50;;;-14.75;70.65
73103;BME280;61294;65.988;29.172;2023-04-03T01:11:29;100427.19;;;-14.76;70.56
73103;BME280;61294;65.988;29.172;2023-04-03T01:13:55;100429.88;;;-14.81;70.90
73103;BME280;61294;65.988;29.172;2023-04-03T01:16:22;100426.22;;;-14.90;71.24
73103;BME280;61294;65.988;29.172;2023-04-03T01:18:48;100419.91;;;-14.87;71.53
73103;BME280;61294;65.988;29.172;2023-04-03T01:21:41;100415.72;;;-14.94;71.46
73103;BME280;61294;65.988;29.172;2023-04-03T01:24:24;100419.63;;;-15.10;71.31
73103;BME280;61294;65.988;29.172;2023-04-03T01:27:02;100413.94;;;-15.49;71.34
73103;BME280;61294;65.988;29.172;2023-04-03T01:29:32;100408.56;;;-15.45;71.27
73103;BME280;61294;65.988;29.172;2023-04-03T01:32:02;100420.38;;;-15.31;71.36
73103;BME280;61294;65.988;29.172;2023-04-03T01:34:30;100427.06;;;-15.32;71.47
73103;BME280;61294;65.988;29.172;2023-04-03T01:36:56;100416.97;;;-15.32;71.35
73103;BME280;61294;65.988;29.172;2023-04-03T01:39:23;100418.09;;;-15.22;71.79
73103;BME280;61294;65.988;29.172;2023-04-03T01:41:49;100423.66;;;-15.25;71.39
73103;BME280;61294;65.988;29.172;2023-04-03T01:44:16;100423.44;;;-15.34;71.11
73103;BME280;61294;65.988;29.172;2023-04-03T01:46:42;100395.16;;;-15.51;71.32
73103;BME280;61294;65.988;29.172;2023-04-03T01:49:08;100390.97;;;-15.58;71.10
73103;BME280;61294;65.988;29.172;2023-04-03T01:51:36;100394.00;;;-15.60;71.34
73103;BME280;61294;65.988;29.172;2023-04-03T01:54:03;100402.25;;;-15.69;70.88
73103;BME280;61294;65.988;29.172;2023-04-03T01:56:29;100399.75;;;-15.89;70.22
73103;BME280;61294;65.988;29.172;2023-04-03T01:58:55;100400.63;;;-15.95;70.63
73103;BME280;61294;65.988;29.172;2023-04-03T02:01:22;100402.91;;;-16.04;70.60
73103;BME280;61294;65.988;29.172;2023-04-03T02:03:51;100405.34;;;-15.91;70.93
73103;BME280;61294;65.988;29.172;2023-04-03T02:06:20;100400.25;;;-15.99;71.06
73103;BME280;61294;65.988;29.172;2023-04-03T02:09:07;100404.19;;;-16.01;70.50
73103;BME280;61294;65.988;29.172;2023-04-03T02:11:36;100422.63;;;-15.94;70.89
73103;BME280;61294;65.988;29.172;2023-04-03T02:14:08;100422.84;;;-15.93;70.74
73103;BME280;61294;65.988;29.172;2023-04-03T02:16:40;100435.84;;;-16.10;70.67
73103;BME280;61294;65.988;29.172;2023-04-03T02:19:09;100443.09;;;-16.06;70.72
73103;BME280;61294;65.988;29.172;2023-04-03T02:21:39;100418.81;;;-16.18;71.07
73103;BME280;61294;65.988;29.172;2023-04-03T02:24:08;100431.88;;;-16.08;71.22
73103;BME280;61294;65.988;29.172;2023-04-03T02:26:37;100419.13;;;-16.22;71.37
73103;BME280;61294;65.988;29.172;2023-04-03T02:29:06;100427.16;;;-16.12;72.25
73103;BME280;61294;65.988;29.172;2023-04-03T02:31:32;100429.16;;;-16.09;72.48
73103;BME280;61294;65.988;29.172;2023-04-03T02:34:02;100435.69;;;-16.24;72.01
73103;BME280;61294;65.988;29.172;2023-04-03T02:36:40;100432.28;;;-16.38;71.56
73103;BME280;61294;65.988;29.172;2023-04-03T02:39:30;100429.72;;;-16.25;72.05
73103;BME280;61294;65.988;29.172;2023-04-03T02:41:55;100437.50;;;-16.23;72.28
73103;BME280;61294;65.988;29.172;2023-04-03T02:44:24;100423.91;;;-16.11;73.13
73103;BME280;61294;65.988;29.172;2023-04-03T02:46:59;100427.19;;;-16.25;73.15
73103;BME280;61294;65.988;29.172;2023-04-03T02:49:28;100427.78;;;-16.53;72.77
73103;BME280;61294;65.988;29.172;2023-04-03T02:52:03;100434.88;;;-16.63;72.62
73103;BME280;61294;65.988;29.172;2023-04-03T02:54:38;100427.09;;;-16.52;72.31
73103;BME280;61294;65.988;29.172;2023-04-03T02:57:05;100432.91;;;-16.46;72.33
73103;BME280;61294;65.988;29.172;2023-04-03T02:59:37;100427.41;;;-16.56;72.29
73103;BME280;61294;65.988;29.172;2023-04-03T03:02:21;100426.91;;;-16.67;71.81
73103;BME280;61294;65.988;29.172;2023-04-03T03:05:06;100439.63;;;-16.59;71.75
73103;BME280;61294;65.988;29.172;2023-04-03T03:07:33;100418.44;;;-16.80;71.62
73103;BME280;61294;65.988;29.172;2023-04-03T03:09:59;100437.41;;;-16.63;72.43
73103;BME280;61294;65.988;29.172;2023-04-03T03:12:26;100413.94;;;-16.82;71.76
73103;BME280;61294;65.988;29.172;2023-04-03T03:15:04;100414.44;;;-16.85;71.66
73103;BME280;61294;65.988;29.172;2023-04-03T03:20:51;100443.13;;;-17.10;70.75
73103;BME280;61294;65.988;29.172;2023-04-03T03:35:24;100447.84;;;-17.32;69.39
73103;BME280;61294;65.988;29.172;2023-04-03T03:41:40;100445.41;;;-17.50;68.49
73103;BME280;61294;65.988;29.172;2023-04-03T03:44:50;100444.84;;;-17.29;68.68
73103;BME280;61294;65.988;29.172;2023-04-03T03:48:23;100451.66;;;-17.41;68.49
73103;BME280;61294;65.988;29.172;2023-04-03T03:51:40;100450.84;;;-17.60;67.94
73103;BME280;61294;65.988;29.172;2023-04-03T03:55:37;100433.00;;;-17.75;68.29
73103;BME280;61294;65.988;29.172;2023-04-03T04:01:27;100453.06;;;-17.56;68.54
73103;BME280;61294;65.988;29.172;2023-04-03T04:04:08;100452.34;;;-17.68;68.17
73103;BME280;61294;65.988;29.172;2023-04-03T04:06:46;100458.47;;;-17.66;68.12
73103;BME280;61294;65.988;29.172;2023-04-03T04:09:47;100447.03;;;-17.51;68.66
73103;BME280;61294;65.988;29.172;2023-04-03T04:15:18;100445.72;;;-17.42;69.25
73103;BME280;61294;65.988;29.172;2023-04-03T04:22:33;100436.25;;;-17.24;69.21
73103;BME280;61294;65.988;29.172;2023-04-03T04:39:26;100447.16;;;-16.92;70.90
73103;BME280;61294;65.988;29.172;2023-04-03T04:53:05;100443.13;;;-16.52;72.11
73103;BME280;61294;65.988;29.172;2023-04-03T04:55:37;100444.44;;;-16.48;71.99
73103;BME280;61294;65.988;29.172;2023-04-03T04:58:21;100424.38;;;-16.54;72.47
73103;BME280;61294;65.988;29.172;2023-04-03T05:00:48;100443.69;;;-16.34;72.54
73103;BME280;61294;65.988;29.172;2023-04-03T05:06:21;100437.44;;;-16.43;71.57
73103;BME280;61294;65.988;29.172;2023-04-03T05:08:58;100436.91;;;-16.28;73.04
73103;BME280;61294;65.988;29.172;2023-04-03T05:11:34;100441.00;;;-16.16;73.45
73103;BME280;61294;65.988;29.172;2023-04-03T05:14:00;100439.25;;;-16.09;73.58
73103;BME280;61294;65.988;29.172;2023-04-03T05:16:32;100435.72;;;-16.04;73.86
73103;BME280;61294;65.988;29.172;2023-04-03T05:18:59;100435.13;;;-15.89;73.64
73103;BME280;61294;65.988;29.172;2023-04-03T05:21:25;100424.88;;;-15.83;73.69
73103;BME280;61294;65.988;29.172;2023-04-03T05:23:53;100421.69;;;-15.75;73.78
73103;BME280;61294;65.988;29.172;2023-04-03T05:26:25;100425.88;;;-15.68;73.41
73103;BME280;61294;65.988;29.172;2023-04-03T05:28:54;100437.69;;;-15.61;73.16
73103;BME280;61294;65.988;29.172;2023-04-03T05:31:20;100418.88;;;-15.64;73.51
73103;BME280;61294;65.988;29.172;2023-04-03T05:33:47;100439.00;;;-15.51;73.51
73103;BME280;61294;65.988;29.172;2023-04-03T05:36:13;100442.25;;;-15.52;74.06
73103;BME280;61294;65.988;29.172;2023-04-03T05:38:39;100405.66;;;-15.48;75.50
73103;BME280;61294;65.988;29.172;2023-04-03T05:41:05;100421.88;;;-15.26;75.57
73103;BME280;61294;65.988;29.172;2023-04-03T05:43:31;100410.13;;;-15.25;75.41
73103;BME280;61294;65.988;29.172;2023-04-03T05:45:58;100438.53;;;-15.14;74.89
73103;BME280;61294;65.988;29.172;2023-04-03T05:48:24;100416.88;;;-15.19;75.78
73103;BME280;61294;65.988;29.172;2023-04-03T05:50:50;100443.34;;;-14.95;75.75
73103;BME280;61294;65.988;29.172;2023-04-03T05:53:22;100435.47;;;-14.84;75.95
73103;BME280;61294;65.988;29.172;2023-04-03T05:55:49;100431.38;;;-14.76;75.68
73103;BME280;61294;65.988;29.172;2023-04-03T05:58:15;100428.84;;;-14.76;76.47
73103;BME280;61294;65.988;29.172;2023-04-03T06:00:41;100429.94;;;-14.60;77.01
73103;BME280;61294;65.988;29.172;2023-04-03T06:03:06;100428.22;;;-14.39;77.55
73103;BME280;61294;65.988;29.172;2023-04-03T06:05:32;100435.28;;;-14.29;76.65
73103;BME280;61294;65.988;29.172;2023-04-03T06:07:58;100430.03;;;-14.24;76.32
73103;BME280;61294;65.988;29.172;2023-04-03T06:10:24;100434.25;;;-14.10;77.32
73103;BME280;61294;65.988;29.172;2023-04-03T06:12:50;100436.59;;;-14.04;77.18
73103;BME280;61294;65.988;29.172;2023-04-03T06:15:16;100420.72;;;-13.96;76.90
73103;BME280;61294;65.988;29.172;2023-04-03T06:17:43;100420.72;;;-13.74;77.59
73103;BME280;61294;65.988;29.172;2023-04-03T06:20:09;100405.16;;;-13.70;77.73
73103;BME280;61294;65.988;29.172;2023-04-03T06:22:35;100406.25;;;-13.46;77.68
73103;BME280;61294;65.988;29.172;2023-04-03T06:25:01;100408.78;;;-13.53;77.23
73103;BME280;61294;65.988;29.172;2023-04-03T06:27:27;100432.44;;;-13.31;78.02
73103;BME280;61294;65.988;29.172;2023-04-03T06:29:53;100416.28;;;-13.10;78.44
73103;BME280;61294;65.988;29.172;2023-04-03T06:32:18;100400.69;;;-12.99;78.75
73103;BME280;61294;65.988;29.172;2023-04-03T06:34:45;100362.09;;;-12.96;78.93
73103;BME280;61294;65.988;29.172;2023-04-03T06:37:22;100423.22;;;-12.27;79.39
73103;BME280;61294;65.988;29.172;2023-04-03T06:39:47;100412.13;;;-12.20;78.05
73103;BME280;61294;65.988;29.172;2023-04-03T06:42:13;100422.31;;;-11.97;78.58
73103;BME280;61294;65.988;29.172;2023-04-03T06:44:39;100415.63;;;-11.96;77.56
73103;BME280;61294;65.988;29.172;2023-04-03T06:47:05;100410.13;;;-11.69;78.18
73103;BME280;61294;65.988;29.172;2023-04-03T06:49:31;100413.63;;;-11.53;77.63
73103;BME280;61294;65.988;29.172;2023-04-03T06:51:57;100404.72;;;-11.33;77.38
73103;BME280;61294;65.988;29.172;2023-04-03T06:54:23;100404.94;;;-11.16;77.35
73103;BME280;61294;65.988;29.172;2023-04-03T06:56:49;100416.28;;;-10.89;76.71
73103;BME280;61294;65.988;29.172;2023-04-03T06:59:15;100370.22;;;-10.99;76.04
73103;BME280;61294;65.988;29.172;2023-04-03T07:01:41;100358.81;;;-10.87;75.77
73103;BME280;61294;65.988;29.172;2023-04-03T07:04:08;100395.41;;;-10.46;75.58
73103;BME280;61294;65.988;29.172;2023-04-03T07:06:34;100405.41;;;-10.07;75.17
73103;BME280;61294;65.988;29.172;2023-04-03T07:09:00;100407.53;;;-10.02;74.22
73103;BME280;61294;65.988;29.172;2023-04-03T07:11:27;100391.59;;;-10.09;73.97
73103;BME280;61294;65.988;29.172;2023-04-03T07:13:53;100397.28;;;-10.11;73.34
73103;BME280;61294;65.988;29.172;2023-04-03T07:16:19;100380.00;;;-10.14;73.65
73103;BME280;61294;65.988;29.172;2023-04-03T07:18:46;100393.16;;;-10.18;72.99
73103;BME280;61294;65.988;29.172;2023-04-03T07:21:12;100404.28;;;-9.93;73.01
73103;BME280;61294;65.988;29.172;2023-04-03T07:23:38;100392.00;;;-9.88;73.16
73103;BME280;61294;65.988;29.172;2023-04-03T07:26:04;100387.78;;;-9.63;72.91
73103;BME280;61294;65.988;29.172;2023-04-03T07:28:30;100399.03;;;-9.61;72.93
73103;BME280;61294;65.988;29.172;2023-04-03T07:31:01;100371.78;;;-9.53;71.67
73103;BME280;61294;65.988;29.172;2023-04-03T07:33:27;100384.59;;;-9.35;71.91
73103;BME280;61294;65.988;29.172;2023-04-03T07:35:54;100386.75;;;-9.23;71.71
73103;BME280;61294;65.988;29.172;2023-04-03T07:38:19;100387.84;;;-9.03;71.63
73103;BME280;61294;65.988;29.172;2023-04-03T07:40:47;100385.75;;;-8.90;71.23
73103;BME280;61294;65.988;29.172;2023-04-03T07:43:14;100391.47;;;-8.83;71.23
73103;BME280;61294;65.988;29.172;2023-04-03T07:45:40;100391.16;;;-8.87;70.58
73103;BME280;61294;65.988;29.172;2023-04-03T07:48:06;100378.56;;;-8.85;71.08
73103;BME280;61294;65.988;29.172;2023-04-03T07:50:32;100382.34;;;-8.64;71.45
73103;BME280;61294;65.988;29.172;2023-04-03T07:52:58;100387.75;;;-8.43;70.75
73103;BME280;61294;65.988;29.172;2023-04-03T07:55:24;100368.91;;;-8.44;69.85
73103;BME280;61294;65.988;29.172;2023-04-03T07:57:50;100378.09;;;-8.28;69.27
73103;BME280;61294;65.988;29.172;2023-04-03T08:00:17;100371.78;;;-8.23;69.83
73103;BME280;61294;65.988;29.172;2023-04-03T08:02:45;100355.38;;;-8.25;69.39
73103;BME280;61294;65.988;29.172;2023-04-03T08:05:19;100379.56;;;-8.04;68.83
73103;BME280;61294;65.988;29.172;2023-04-03T08:07:45;100368.16;;;-7.63;69.02
73103;BME280;61294;65.988;29.172;2023-04-03T08:10:12;100354.31;;;-7.28;68.95
73103;BME280;61294;65.988;29.172;2023-04-03T08:12:38;100384.44;;;-6.98;68.29
73103;BME280;61294;65.988;29.172;2023-04-03T08:15:04;100357.19;;;-6.78;66.90
73103;BME280;61294;65.988;29.172;2023-04-03T08:17:30;100357.78;;;-6.23;66.10
73103;BME280;61294;65.988;29.172;2023-04-03T08:19:55;100368.22;;;-5.72;64.84
73103;BME280;61294;65.988;29.172;2023-04-03T08:22:21;100365.75;;;-5.51;63.52
73103;BME280;61294;65.988;29.172;2023-04-03T08:24:47;100364.50;;;-5.15;63.30
73103;BME280;61294;65.988;29.172;2023-04-03T08:27:13;100362.31;;;-5.00;62.99
73103;BME280;61294;65.988;29.172;2023-04-03T08:29:38;100328.81;;;-4.81;63.71
73103;BME280;61294;65.988;29.172;2023-04-03T08:32:05;100355.75;;;-4.45;61.57
73103;BME280;61294;65.988;29.172;2023-04-03T08:34:31;100349.28;;;-4.30;60.96
73103;BME280;61294;65.988;29.172;2023-04-03T08:37:00;100349.22;;;-4.09;60.79
73103;BME280;61294;65.988;29.172;2023-04-03T08:39:28;100345.94;;;-3.86;60.57
73103;BME280;61294;65.988;29.172;2023-04-03T08:41:57;100336.19;;;-3.68;59.19
73103;BME280;61294;65.988;29.172;2023-04-03T08:47:10;100333.78;;;-3.33;58.03
73103;BME280;61294;65.988;29.172;2023-04-03T08:49:41;100337.81;;;-3.02;57.46
73103;BME280;61294;65.988;29.172;2023-04-03T08:52:42;100289.75;;;-3.02;58.41
73103;BME280;61294;65.988;29.172;2023-04-03T08:55:32;100321.75;;;-2.64;57.46
73103;BME280;61294;65.988;29.172;2023-04-03T08:58:10;100317.28;;;-2.08;58.51
73103;BME280;61294;65.988;29.172;2023-04-03T09:03:20;100329.81;;;-0.89;56.67
73103;BME280;61294;65.988;29.172;2023-04-03T09:11:24;100306.84;;;4.93;46.96
73103;BME280;61294;65.988;29.172;2023-04-03T09:14:20;100297.25;;;15.68;32.35
73103;BME280;61294;65.988;29.172;2023-04-03T09:19:47;100288.16;;;21.55;22.14
73103;BME280;61294;65.988;29.172;2023-04-03T09:22:27;100287.75;;;22.43;19.92
73103;BME280;61294;65.988;29.172;2023-04-03T09:25:17;100279.69;;;23.92;18.47
73103;BME280;61294;65.988;29.172;2023-04-03T09:27:44;100274.66;;;23.53;15.51
73103;BME280;61294;65.988;29.172;2023-04-03T09:30:29;100265.66;;;24.85;16.99
73103;BME280;61294;65.988;29.172;2023-04-03T09:32:57;100265.63;;;25.32;15.73
73103;BME280;61294;65.988;29.172;2023-04-03T09:37:51;100268.63;;;26.75;15.12
73103;BME280;61294;65.988;29.172;2023-04-03T09:40:33;100255.28;;;26.10;14.24
73103;BME280;61294;65.988;29.172;2023-04-03T09:45:41;100260.44;;;28.41;13.61
73103;BME280;61294;65.988;29.172;2023-04-03T09:51:01;100246.00;;;28.76;13.26
73103;BME280;61294;65.988;29.172;2023-04-03T09:53:33;100249.06;;;26.89;12.73
73103;BME280;61294;65.988;29.172;2023-04-03T09:56:00;100252.63;;;27.27;13.47
73103;BME280;61294;65.988;29.172;2023-04-03T09:58:33;100252.81;;;26.45;11.80
73103;BME280;61294;65.988;29.172;2023-04-03T10:01:03;100239.44;;;27.58;12.96
73103;BME280;61294;65.988;29.172;2023-04-03T10:03:36;100243.91;;;26.01;13.00
73103;BME280;61294;65.988;29.172;2023-04-03T10:06:03;100244.38;;;24.01;14.26
73103;BME280;61294;65.988;29.172;2023-04-03T10:08:32;100248.09;;;18.32;17.74
73103;BME280;61294;65.988;29.172;2023-04-03T10:11:15;100243.31;;;17.73;19.30
73103;BME280;61294;65.988;29.172;2023-04-03T10:13:54;100245.81;;;19.43;18.15
73103;BME280;61294;65.988;29.172;2023-04-03T10:16:48;100240.47;;;13.49;22.33
73103;BME280;61294;65.988;29.172;2023-04-03T10:27:44;100223.63;;;11.95;23.22
73103;BME280;61294;65.988;29.172;2023-04-03T10:30:47;100230.22;;;12.24;22.48
73103;BME280;61294;65.988;29.172;2023-04-03T10:36:02;100214.16;;;22.17;15.91
73103;BME280;61294;65.988;29.172;2023-04-03T10:41:38;100206.94;;;23.40;13.39
73103;BME280;61294;65.988;29.172;2023-04-03T10:46:52;100197.56;;;26.52;13.91
73103;BME280;61294;65.988;29.172;2023-04-03T10:52:02;100192.19;;;25.47;13.33
73103;BME280;61294;65.988;29.172;2023-04-03T10:57:23;100199.44;;;26.90;11.88
73103;BME280;61294;65.988;29.172;2023-04-03T10:59:55;100183.44;;;27.04;11.78
73103;BME280;61294;65.988;29.172;2023-04-03T11:02:30;100193.47;;;24.69;11.91
73103;BME280;61294;65.988;29.172;2023-04-03T11:05:04;100184.13;;;27.27;12.05
73103;BME280;61294;65.988;29.172;2023-04-03T11:07:38;100178.63;;;26.73;12.39
73103;BME280;61294;65.988;29.172;2023-04-03T11:13:10;100157.75;;;25.10;13.27
73103;BME280;61294;65.988;29.172;2023-04-03T11:15:37;100165.25;;;26.89;12.78
73103;BME280;61294;65.988;29.172;2023-04-03T11:18:08;100165.38;;;27.24;12.19
73103;BME280;61294;65.988;29.172;2023-04-03T11:20:36;100166.56;;;26.21;12.92
73103;BME280;61294;65.988;29.172;2023-04-03T11:23:06;100166.88;;;24.11;13.56
73103;BME280;61294;65.988;29.172;2023-04-03T11:25:40;100156.22;;;20.20;17.31
73103;BME280;61294;65.988;29.172;2023-04-03T11:28:14;100164.44;;;19.06;17.94
73103;BME280;61294;65.988;29.172;2023-04-03T11:33:31;100145.41;;;24.57;15.24
73103;BME280;61294;65.988;29.172;2023-04-03T11:36:09;100137.34;;;24.80;13.10
73103;BME280;61294;65.988;29.172;2023-04-03T11:38:41;100145.19;;;24.39;11.97
73103;BME280;61294;65.988;29.172;2023-04-03T11:41:09;100145.88;;;23.17;14.04
73103;BME280;61294;65.988;29.172;2023-04-03T11:44:00;100135.41;;;23.88;12.13
73103;BME280;61294;65.988;29.172;2023-04-03T11:46:49;100132.44;;;24.21;14.03
73103;BME280;61294;65.988;29.172;2023-04-03T11:49:53;100137.72;;;24.47;12.06
73103;BME280;61294;65.988;29.172;2023-04-03T12:05:53;100117.25;;;26.94;11.55
73103;BME280;61294;65.988;29.172;2023-04-03T12:08:29;100118.22;;;25.31;12.93
73103;BME280;61294;65.988;29.172;2023-04-03T12:16:32;100095.69;;;27.46;12.94
73103;BME280;61294;65.988;29.172;2023-04-03T12:26:51;100093.19;;;24.85;13.95
73103;BME280;61294;65.988;29.172;2023-04-03T12:29:33;100085.59;;;26.96;13.10
73103;BME280;61294;65.988;29.172;2023-04-03T12:41:21;100065.81;;;27.13;12.95
73103;BME280;61294;65.988;29.172;2023-04-03T12:46:36;100063.53;;;27.58;12.03
73103;BME280;61294;65.988;29.172;2023-04-03T12:49:16;100066.22;;;26.68;12.32
73103;BME280;61294;65.988;29.172;2023-04-03T12:51:45;100056.81;;;25.17;13.29
73103;BME280;61294;65.988;29.172;2023-04-03T12:54:16;100046.91;;;26.57;13.09
73103;BME280;61294;65.988;29.172;2023-04-03T12:56:43;100049.13;;;26.30;11.96
73103;BME280;61294;65.988;29.172;2023-04-03T13:01:42;100038.75;;;24.53;13.92
73103;BME280;61294;65.988;29.172;2023-04-03T13:04:11;100032.22;;;23.64;12.26
73103;BME280;61294;65.988;29.172;2023-04-03T13:06:40;100039.69;;;24.52;12.79
73103;BME280;61294;65.988;29.172;2023-04-03T13:09:20;100035.78;;;24.60;13.23
73103;BME280;61294;65.988;29.172;2023-04-03T13:11:58;100039.22;;;24.86;12.49
73103;BME280;61294;65.988;29.172;2023-04-03T13:14:26;100022.03;;;20.39;15.81
73103;BME280;61294;65.988;29.172;2023-04-03T13:16:59;100037.91;;;15.19;20.26
73103;BME280;61294;65.988;29.172;2023-04-03T13:19:27;100031.44;;;11.73;23.81
73103;BME280;61294;65.988;29.172;2023-04-03T13:22:01;100037.66;;;11.79;22.12
73103;BME280;61294;65.988;29.172;2023-04-03T13:24:30;100032.94;;;11.53;24.47
73103;BME280;61294;65.988;29.172;2023-04-03T13:26:58;100003.44;;;10.64;23.40
73103;BME280;61294;65.988;29.172;2023-04-03T13:29:34;100008.66;;;15.38;20.93
73103;BME280;61294;65.988;29.172;2023-04-03T13:32:01;100009.91;;;18.83;17.84
73103;BME280;61294;65.988;29.172;2023-04-03T13:34:34;100013.81;;;20.46;15.87
73103;BME280;61294;65.988;29.172;2023-04-03T13:37:02;100010.81;;;18.24;16.41
73103;BME280;61294;65.988;29.172;2023-04-03T13:39:34;100005.88;;;20.04;16.73
73103;BME280;61294;65.988;29.172;2023-04-03T13:42:15;100000.03;;;19.87;15.02
73103;BME280;61294;65.988;29.172;2023-04-03T13:44:41;99978.69;;;18.88;16.82
73103;BME280;61294;65.988;29.172;2023-04-03T13:49:36;99985.50;;;19.98;17.07
73103;BME280;61294;65.988;29.172;2023-04-03T13:52:22;99986.44;;;20.35;15.60
73103;BME280;61294;65.988;29.172;2023-04-03T13:54:57;99986.31;;;20.41;16.96
73103;BME280;61294;65.988;29.172;2023-04-03T13:57:24;99986.28;;;20.02;15.51
73103;BME280;61294;65.988;29.172;2023-04-03T13:59:51;99994.72;;;16.70;19.07
73103;BME280;61294;65.988;29.172;2023-04-03T14:02:22;99990.66;;;12.23;22.35
73103;BME280;61294;65.988;29.172;2023-04-03T14:04:56;99987.13;;;10.34;24.32
73103;BME280;61294;65.988;29.172;2023-04-03T14:07:25;99992.81;;;9.66;26.67
73103;BME280;61294;65.988;29.172;2023-04-03T14:09:52;99959.75;;;8.57;26.39
73103;BME280;61294;65.988;29.172;2023-04-03T14:12:24;99974.81;;;7.97;27.28
73103;BME280;61294;65.988;29.172;2023-04-03T14:14:51;99980.00;;;7.64;27.65
73103;BME280;61294;65.988;29.172;2023-04-03T14:17:20;99952.47;;;6.88;29.03
73103;BME280;61294;65.988;29.172;2023-04-03T14:19:47;99989.97;;;6.60;27.83
73103;BME280;61294;65.988;29.172;2023-04-03T14:22:28;99983.59;;;6.00;29.36
73103;BME280;61294;65.988;29.172;2023-04-03T14:24:55;99982.50;;;5.71;30.60
73103;BME280;61294;65.988;29.172;2023-04-03T14:27:48;99968.59;;;5.72;30.58
73103;BME280;61294;65.988;29.172;2023-04-03T14:30:32;99966.75;;;4.98;30.16
73103;BME280;61294;65.988;29.172;2023-04-03T14:32:59;99958.13;;;5.24;31.25
73103;BME280;61294;65.988;29.172;2023-04-03T14:35:25;99975.03;;;5.33;33.95
73103;BME280;61294;65.988;29.172;2023-04-03T14:37:52;99962.66;;;5.28;30.85
73103;BME280;61294;65.988;29.172;2023-04-03T14:40:26;99957.97;;;4.10;32.17
73103;BME280;61294;65.988;29.172;2023-04-03T14:42:53;99947.47;;;4.09;31.97
73103;BME280;61294;65.988;29.172;2023-04-03T14:45:21;99959.91;;;3.74;31.79
73103;BME280;61294;65.988;29.172;2023-04-03T14:47:49;99955.75;;;4.20;33.76
73103;BME280;61294;65.988;29.172;2023-04-03T14:50:18;99953.59;;;4.09;31.97
73103;BME280;61294;65.988;29.172;2023-04-03T14:52:48;99947.47;;;3.88;32.42
73103;BME280;61294;65.988;29.172;2023-04-03T14:55:16;99935.66;;;3.36;33.25
73103;BME280;61294;65.988;29.172;2023-04-03T14:57:42;99942.53;;;2.96;32.91
73103;BME280;61294;65.988;29.172;2023-04-03T15:00:17;99910.81;;;3.05;32.79
73103;BME280;61294;65.988;29.172;2023-04-03T15:02:43;99922.41;;;3.11;35.04
73103;BME280;61294;65.988;29.172;2023-04-03T15:05:10;99928.94;;;3.21;33.69
73103;BME280;61294;65.988;29.172;2023-04-03T15:07:41;99936.16;;;2.89;32.75
73103;BME280;61294;65.988;29.172;2023-04-03T15:10:22;99929.47;;;3.14;36.10
73103;BME280;61294;65.988;29.172;2023-04-03T15:12:49;99926.75;;;2.55;33.33
73103;BME280;61294;65.988;29.172;2023-04-03T15:15:17;99924.75;;;2.32;34.38
73103;BME280;61294;65.988;29.172;2023-04-03T15:17:44;99921.84;;;2.44;33.41
73103;BME280;61294;65.988;29.172;2023-04-03T15:20:22;99908.31;;;2.51;34.88
73103;BME280;61294;65.988;29.172;2023-04-03T15:22:48;99922.06;;;2.66;34.66
73103;BME280;61294;65.988;29.172;2023-04-03T15:25:15;99922.56;;;2.77;34.66
73103;BME280;61294;65.988;29.172;2023-04-03T15:27:41;99908.84;;;2.62;33.38
73103;BME280;61294;65.988;29.172;2023-04-03T15:30:11;99912.34;;;2.26;33.52